createdAt,value
2019-02-12T00:00:12.131Z,3.60
2019-02-12T00:02:41.455Z,3.70
2019-02-12T00:05:12.558Z,3.70
2019-02-12T00:07:41.747Z,3.60
2019-02-12T00:10:11.076Z,3.60
2019-02-12T00:12:41.282Z,3.60
2019-02-12T00:15:10.598Z,3.60
2019-02-12T00:17:39.941Z,3.50
2019-02-12T00:20:09.274Z,3.50
2019-02-12T00:22:38.547Z,3.50
2019-02-12T00:25:07.867Z,3.40
2019-02-12T00:27:37.148Z,3.60
2019-02-12T00:30:06.956Z,3.50
2019-02-12T00:32:36.281Z,3.50
2019-02-12T00:35:06.025Z,3.60
2019-02-12T00:37:35.339Z,3.60
2019-02-12T00:40:04.744Z,3.70
2019-02-12T00:42:34.090Z,3.70
2019-02-12T00:45:03.369Z,3.60
2019-02-12T00:47:32.708Z,3.70
2019-02-12T00:50:02.158Z,3.70
2019-02-12T00:52:31.477Z,3.70
2019-02-12T00:55:02.611Z,3.70
2019-02-12T00:57:31.992Z,3.70
2019-02-12T01:00:01.327Z,3.70
2019-02-12T01:02:30.692Z,3.60
2019-02-12T01:05:00.027Z,3.60
2019-02-12T01:07:29.341Z,3.60
2019-02-12T01:09:58.675Z,3.80
2019-02-12T01:12:27.969Z,3.70
2019-02-12T01:14:57.300Z,3.70
2019-02-12T01:17:26.630Z,3.60
2019-02-12T01:19:55.949Z,3.80
2019-02-12T01:22:25.226Z,3.70
2019-02-12T01:24:54.546Z,3.70
2019-02-12T01:27:23.855Z,3.70
2019-02-12T01:29:53.182Z,3.70
2019-02-12T01:32:22.487Z,3.70
2019-02-12T01:34:51.787Z,3.60
2019-02-12T01:37:21.103Z,3.70
2019-02-12T01:39:50.432Z,3.70
2019-02-12T01:42:19.768Z,3.70
2019-02-12T01:44:49.084Z,3.80
2019-02-12T01:47:18.420Z,3.70
2019-02-12T01:49:47.732Z,3.70
2019-02-12T01:52:17.077Z,3.70
2019-02-12T01:54:46.402Z,3.70
2019-02-12T01:57:15.741Z,3.70
2019-02-12T01:59:45.028Z,3.70
2019-02-12T02:02:14.362Z,3.70
2019-02-12T02:04:43.699Z,3.70
2019-02-12T02:07:13.026Z,3.70
2019-02-12T02:09:42.367Z,3.70
2019-02-12T02:12:11.721Z,3.70
2019-02-12T02:14:41.070Z,3.80
2019-02-12T02:17:10.354Z,3.80
2019-02-12T02:19:39.686Z,3.70
2019-02-12T02:22:09.169Z,3.70
2019-02-12T02:24:38.514Z,3.70
2019-02-12T02:27:07.826Z,3.70
2019-02-12T02:29:37.124Z,3.70
2019-02-12T02:32:06.473Z,3.70
2019-02-12T02:34:35.770Z,3.80
2019-02-12T02:37:05.094Z,3.70
2019-02-12T02:39:34.387Z,3.80
2019-02-12T02:42:03.728Z,3.80
2019-02-12T02:44:33.022Z,3.70
2019-02-12T02:47:02.339Z,3.70
2019-02-12T02:49:31.701Z,3.70
2019-02-12T02:52:01.069Z,3.80
2019-02-12T02:54:30.378Z,3.70
2019-02-12T02:56:59.683Z,3.80
2019-02-12T02:59:29.033Z,3.70
2019-02-12T03:01:58.332Z,3.70
2019-02-12T03:04:27.671Z,3.70
2019-02-12T03:06:56.955Z,3.80
2019-02-12T03:09:26.306Z,3.80
2019-02-12T03:11:55.613Z,3.70
2019-02-12T03:14:24.950Z,3.80
2019-02-12T03:16:54.390Z,3.80
2019-02-12T03:19:23.697Z,3.70
2019-02-12T03:21:53.037Z,3.80
2019-02-12T03:24:22.364Z,3.80
2019-02-12T03:26:51.749Z,3.80
2019-02-12T03:29:21.050Z,3.80
2019-02-12T03:31:50.418Z,3.80
2019-02-12T03:34:19.735Z,3.80
2019-02-12T03:36:49.036Z,3.80
2019-02-12T03:39:18.347Z,3.80
2019-02-12T03:41:47.674Z,3.80
2019-02-12T03:44:16.993Z,3.80
2019-02-12T03:46:46.298Z,3.80
2019-02-12T03:49:15.626Z,3.80
2019-02-12T03:51:44.924Z,3.80
2019-02-12T03:54:14.276Z,3.80
2019-02-12T03:56:43.563Z,3.80
2019-02-12T03:59:12.890Z,3.80
2019-02-12T04:01:42.169Z,3.80
2019-02-12T04:04:11.522Z,3.80
2019-02-12T04:06:40.794Z,3.80
2019-02-12T04:09:10.153Z,3.80
2019-02-12T04:11:39.551Z,3.80
2019-02-12T04:14:08.922Z,3.70
2019-02-12T04:16:38.187Z,3.70
2019-02-12T04:19:07.536Z,3.70
2019-02-12T04:21:36.819Z,3.70
2019-02-12T04:24:06.147Z,3.70
2019-02-12T04:26:35.529Z,3.80
2019-02-12T04:29:04.761Z,3.60
2019-02-12T04:31:34.080Z,3.60
2019-02-12T04:34:03.384Z,3.60
2019-02-12T04:36:32.737Z,3.70
2019-02-12T04:39:02.010Z,3.60
2019-02-12T04:41:31.347Z,3.70
2019-02-12T04:44:00.631Z,3.60
2019-02-12T04:46:29.952Z,3.60
2019-02-12T04:48:59.239Z,3.60
2019-02-12T04:51:28.579Z,3.60
2019-02-12T04:53:57.875Z,3.60
2019-02-12T04:56:27.194Z,3.70
2019-02-12T04:58:56.537Z,3.60
2019-02-12T05:01:25.828Z,3.60
2019-02-12T05:03:55.183Z,3.60
2019-02-12T05:06:24.483Z,3.60
2019-02-12T05:09:15.261Z,3.70
2019-02-12T05:11:50.444Z,3.60
2019-02-12T05:14:19.825Z,3.60
2019-02-12T05:16:49.131Z,3.70
2019-02-12T05:19:18.502Z,3.70
2019-02-12T05:21:47.845Z,3.60
2019-02-12T05:24:19.407Z,3.70
2019-02-12T05:26:48.728Z,3.60
2019-02-12T05:29:18.529Z,3.60
2019-02-12T05:31:47.854Z,3.60
2019-02-12T05:34:17.141Z,3.60
2019-02-12T05:36:46.446Z,3.60
2019-02-12T05:39:15.786Z,3.60
2019-02-12T05:41:45.103Z,3.60
2019-02-12T05:44:14.401Z,3.60
2019-02-12T05:46:43.733Z,3.60
2019-02-12T05:49:13.015Z,3.60
2019-02-12T05:51:43.564Z,3.50
2019-02-12T05:54:12.854Z,3.60
2019-02-12T05:56:42.211Z,3.60
2019-02-12T05:59:11.521Z,3.60
2019-02-12T06:01:43.883Z,3.50
2019-02-12T06:04:13.255Z,3.60
2019-02-12T06:06:42.576Z,3.60
2019-02-12T06:09:11.847Z,3.60
2019-02-12T06:11:41.241Z,3.60
2019-02-12T06:14:10.495Z,3.60
2019-02-12T06:16:39.850Z,3.60
2019-02-12T06:19:09.182Z,3.60
2019-02-12T06:21:38.526Z,3.50
2019-02-12T06:24:07.846Z,3.60
2019-02-12T06:26:37.188Z,3.70
2019-02-12T06:29:06.496Z,3.60
2019-02-12T06:31:35.791Z,3.70
2019-02-12T06:34:05.114Z,3.70
2019-02-12T06:36:34.453Z,3.60
2019-02-12T06:39:05.175Z,3.60
2019-02-12T06:41:34.559Z,3.50
2019-02-12T06:44:03.895Z,3.40
2019-02-12T06:46:33.232Z,3.40
2019-02-12T06:49:02.568Z,3.50
2019-02-12T06:51:31.922Z,3.50
2019-02-12T06:54:01.294Z,3.40
2019-02-12T06:56:30.589Z,3.50
2019-02-12T06:58:59.917Z,3.40
2019-02-12T07:01:29.224Z,3.40
2019-02-12T07:04:04.369Z,3.50
2019-02-12T07:06:49.176Z,3.50
2019-02-12T07:09:28.723Z,3.60
2019-02-12T07:12:26.764Z,3.50
2019-02-12T07:15:13.474Z,3.50
2019-02-12T07:18:21.115Z,3.50
2019-02-12T07:21:17.818Z,3.50
2019-02-12T07:24:55.614Z,3.60
2019-02-12T07:28:09.039Z,3.60
2019-02-12T07:31:17.075Z,3.70
2019-02-12T07:34:26.056Z,3.60
2019-02-12T07:37:45.423Z,3.60
2019-02-12T07:41:20.182Z,3.60
2019-02-12T07:43:59.782Z,3.60
2019-02-12T07:47:22.146Z,3.60
2019-02-12T07:50:38.509Z,3.60
2019-02-12T07:53:30.592Z,3.70
2019-02-12T07:56:45.951Z,3.80
2019-02-12T07:59:59.714Z,3.80
2019-02-12T08:02:55.145Z,3.80
2019-02-12T08:06:08.794Z,3.80
2019-02-12T08:09:28.246Z,3.90
2019-02-12T08:12:42.341Z,4.00
2019-02-12T08:16:10.814Z,4.00
2019-02-12T08:19:18.027Z,4.10
2019-02-12T08:22:28.323Z,4.10
2019-02-12T08:25:21.539Z,4.10
2019-02-12T08:28:07.934Z,4.10
2019-02-12T08:31:21.764Z,4.20
2019-02-12T08:34:31.747Z,4.20
2019-02-12T08:37:23.463Z,4.30
2019-02-12T08:40:19.908Z,4.30
2019-02-12T08:43:29.371Z,4.30
2019-02-12T08:46:29.102Z,4.30
2019-02-12T08:49:40.918Z,4.40
2019-02-12T08:52:38.518Z,4.40
2019-02-12T08:55:44.629Z,4.50
2019-02-12T08:58:33.303Z,4.50
2019-02-12T09:01:28.188Z,4.60
2019-02-12T09:04:31.626Z,4.60
2019-02-12T09:07:37.441Z,4.60
2019-02-12T09:10:37.602Z,4.70
2019-02-12T09:13:54.245Z,4.80
2019-02-12T09:17:04.617Z,4.70
2019-02-12T09:19:45.371Z,4.90
2019-02-12T09:22:56.123Z,5.00
2019-02-12T09:25:34.581Z,5.00
2019-02-12T09:28:44.230Z,5.10
2019-02-12T09:32:00.952Z,5.10
2019-02-12T09:35:02.664Z,5.20
2019-02-12T09:38:28.502Z,5.20
2019-02-12T09:41:23.926Z,5.20
2019-02-12T09:44:20.340Z,5.30
2019-02-12T09:47:39.751Z,5.30
2019-02-12T09:50:41.915Z,5.40
2019-02-12T09:54:08.871Z,5.50
2019-02-12T09:57:03.172Z,5.60
2019-02-12T10:00:08.225Z,5.70
2019-02-12T10:03:30.585Z,5.70
2019-02-12T10:06:50.268Z,5.80
2019-02-12T10:09:31.579Z,5.70
2019-02-12T10:12:40.473Z,5.70
2019-02-12T10:15:52.499Z,5.70
2019-02-12T10:19:18.379Z,5.70
2019-02-12T10:22:49.781Z,5.90
2019-02-12T10:25:52.350Z,6.10
2019-02-12T10:28:58.750Z,6.30
2019-02-12T10:31:41.320Z,6.30
2019-02-12T10:34:10.938Z,6.30
2019-02-12T10:36:40.252Z,6.30
2019-02-12T10:39:16.328Z,6.20
2019-02-12T10:41:45.672Z,6.20
2019-02-12T10:44:14.958Z,6.20
2019-02-12T10:46:44.307Z,6.30
2019-02-12T10:49:13.599Z,6.30
2019-02-12T10:51:42.927Z,6.40
2019-02-12T10:54:13.566Z,6.50
2019-02-12T10:56:43.027Z,6.40
2019-02-12T10:59:14.399Z,6.40
2019-02-12T11:01:43.405Z,6.50
2019-02-12T11:04:12.726Z,6.60
2019-02-12T11:06:42.033Z,6.50
2019-02-12T11:09:11.357Z,6.60
2019-02-12T11:11:40.696Z,6.60
2019-02-12T11:14:10.060Z,6.70
2019-02-12T11:16:39.338Z,6.70
2019-02-12T11:19:08.627Z,6.70
2019-02-12T11:21:37.936Z,6.70
2019-02-12T11:24:07.231Z,6.70
2019-02-12T11:26:36.530Z,6.80
2019-02-12T11:29:05.866Z,6.80
2019-02-12T11:31:35.153Z,6.70
2019-02-12T11:34:04.498Z,6.70
2019-02-12T11:36:33.856Z,6.60
2019-02-12T11:39:03.198Z,6.60
2019-02-12T11:41:32.505Z,6.60
2019-02-12T11:44:01.855Z,6.60
2019-02-12T11:46:31.205Z,6.60
2019-02-12T11:49:00.502Z,6.80
2019-02-12T11:51:29.827Z,7.10
2019-02-12T11:53:59.116Z,7.30
2019-02-12T11:56:28.437Z,7.60
2019-02-12T11:58:57.763Z,7.90
2019-02-12T12:01:29.968Z,8.10
2019-02-12T12:03:59.297Z,8.10
2019-02-12T12:06:28.589Z,8.20
2019-02-12T12:08:57.886Z,8.20
2019-02-12T12:11:27.230Z,8.40
2019-02-12T12:13:56.550Z,8.40
2019-02-12T12:16:25.823Z,8.30
2019-02-12T12:18:55.148Z,8.30
2019-02-12T12:21:24.537Z,8.40
2019-02-12T12:23:53.863Z,8.40
2019-02-12T12:26:23.166Z,8.50
2019-02-12T12:28:52.458Z,8.40
2019-02-12T12:31:21.789Z,8.40
2019-02-12T12:33:51.109Z,8.50
2019-02-12T12:36:20.470Z,8.30
2019-02-12T12:38:49.837Z,8.20
2019-02-12T12:41:19.177Z,8.40
2019-02-12T12:43:48.471Z,8.30
2019-02-12T12:46:17.855Z,8.40
2019-02-12T12:48:47.083Z,8.40
2019-02-12T12:51:16.408Z,8.60
2019-02-12T12:53:48.857Z,8.50
2019-02-12T12:56:18.142Z,8.50
2019-02-12T12:58:47.435Z,8.40
2019-02-12T13:01:16.786Z,8.40
2019-02-12T13:03:46.126Z,8.40
2019-02-12T13:06:15.442Z,8.40
2019-02-12T13:08:44.862Z,8.20
2019-02-12T13:11:14.183Z,8.10
2019-02-12T13:13:43.537Z,8.20
2019-02-12T13:16:12.823Z,8.30
2019-02-12T13:18:42.137Z,8.40
2019-02-12T13:21:11.481Z,8.40
2019-02-12T13:23:40.829Z,8.40
2019-02-12T13:26:10.152Z,8.40
2019-02-12T13:28:39.470Z,8.30
2019-02-12T13:31:08.792Z,8.40
2019-02-12T13:33:38.094Z,8.40
2019-02-12T13:36:07.377Z,8.50
2019-02-12T13:38:38.054Z,8.30
2019-02-12T13:41:07.454Z,8.40
2019-02-12T13:43:36.788Z,8.40
2019-02-12T13:46:06.126Z,8.50
2019-02-12T13:48:36.279Z,8.40
2019-02-12T13:51:05.617Z,8.20
2019-02-12T13:53:34.946Z,8.40
2019-02-12T13:56:04.254Z,8.30
2019-02-12T13:58:34.658Z,8.30
2019-02-12T14:01:03.924Z,8.40
2019-02-12T14:03:33.279Z,8.40
2019-02-12T14:06:02.682Z,8.40
2019-02-12T14:08:31.954Z,8.40
2019-02-12T14:11:01.242Z,8.50
2019-02-12T14:13:30.580Z,8.40
2019-02-12T14:15:59.906Z,8.40
2019-02-12T14:18:29.270Z,8.50
2019-02-12T14:20:58.574Z,8.50
2019-02-12T14:23:27.917Z,8.80
2019-02-12T14:25:57.247Z,8.70
2019-02-12T14:28:26.539Z,8.70
2019-02-12T14:30:55.867Z,8.60
2019-02-12T14:33:25.139Z,8.60
2019-02-12T14:35:54.424Z,8.70
2019-02-12T14:38:23.735Z,8.70
2019-02-12T14:40:53.082Z,8.80
2019-02-12T14:43:22.424Z,8.70
2019-02-12T14:45:51.709Z,8.60
2019-02-12T14:48:21.060Z,8.60
2019-02-12T14:50:50.519Z,8.50
2019-02-12T14:53:19.814Z,8.70
2019-02-12T14:55:49.170Z,8.60
2019-02-12T14:58:18.512Z,8.40
2019-02-12T15:00:47.842Z,8.30
2019-02-12T15:03:17.118Z,8.40
2019-02-12T15:05:46.470Z,8.20
2019-02-12T15:08:15.794Z,8.20
2019-02-12T15:10:45.083Z,8.10
2019-02-12T15:13:14.409Z,8.10
2019-02-12T15:15:43.719Z,8.10
2019-02-12T15:18:13.117Z,8.10
2019-02-12T15:20:42.430Z,8.10
2019-02-12T15:23:11.742Z,8.00
2019-02-12T15:25:42.156Z,8.10
2019-02-12T15:28:11.679Z,7.90
2019-02-12T15:30:40.979Z,7.90
2019-02-12T15:33:10.322Z,7.90
2019-02-12T15:35:39.655Z,8.20
2019-02-12T15:38:08.931Z,8.00
2019-02-12T15:40:38.259Z,8.00
2019-02-12T15:43:07.568Z,8.00
2019-02-12T15:45:36.931Z,7.80
2019-02-12T15:48:06.323Z,7.90
2019-02-12T15:50:37.202Z,7.80
2019-02-12T15:53:06.669Z,7.50
2019-02-12T15:55:42.090Z,7.60
2019-02-12T15:58:08.058Z,7.30
2019-02-12T16:00:37.463Z,7.30
2019-02-12T16:03:06.763Z,7.30
2019-02-12T16:05:36.113Z,7.20
2019-02-12T16:08:07.218Z,6.90
2019-02-12T16:10:37.654Z,7.20
2019-02-12T16:13:07.358Z,7.10
2019-02-12T16:15:36.651Z,7.10
2019-02-12T16:18:07.058Z,6.90
2019-02-12T16:20:36.377Z,7.00
2019-02-12T16:23:05.683Z,7.10
2019-02-12T16:25:35.015Z,7.00
2019-02-12T16:28:04.318Z,6.90
2019-02-12T16:30:33.612Z,6.90
2019-02-12T16:33:02.943Z,6.90
2019-02-12T16:35:32.314Z,7.00
2019-02-12T16:38:01.657Z,7.10
2019-02-12T16:40:31.018Z,6.90
2019-02-12T16:43:00.349Z,6.80
2019-02-12T16:45:33.655Z,6.70
2019-02-12T16:48:02.948Z,6.70
2019-02-12T16:50:32.283Z,6.80
2019-02-12T16:53:01.562Z,6.70
2019-02-12T16:55:30.880Z,6.80
2019-02-12T16:58:00.160Z,6.60
2019-02-12T17:00:29.458Z,6.40
2019-02-12T17:02:58.775Z,6.50
2019-02-12T17:05:28.093Z,6.50
2019-02-12T17:07:57.474Z,6.40
2019-02-12T17:10:29.039Z,6.40
2019-02-12T17:12:58.416Z,6.40
2019-02-12T17:15:27.766Z,6.40
2019-02-12T17:17:57.074Z,6.40
2019-02-12T17:20:26.420Z,6.30
2019-02-12T17:22:55.707Z,6.20
2019-02-12T17:25:25.044Z,6.30
2019-02-12T17:27:54.354Z,6.20
2019-02-12T17:30:23.762Z,6.20
2019-02-12T17:32:53.111Z,6.20
2019-02-12T17:35:22.496Z,6.20
2019-02-12T17:37:51.789Z,6.20
2019-02-12T17:40:21.133Z,6.10
2019-02-12T17:42:50.476Z,6.30
2019-02-12T17:45:19.962Z,6.20
2019-02-12T17:47:49.291Z,6.20
2019-02-12T17:50:18.630Z,6.20
2019-02-12T17:52:51.073Z,6.20
2019-02-12T17:55:20.418Z,6.20
2019-02-12T17:57:49.772Z,6.20
2019-02-12T18:00:22.014Z,6.10
2019-02-12T18:02:51.351Z,6.10
2019-02-12T18:05:20.726Z,6.30
2019-02-12T18:07:50.086Z,6.30
2019-02-12T18:10:19.446Z,6.30
2019-02-12T18:12:48.732Z,6.20
2019-02-12T18:15:18.195Z,6.30
2019-02-12T18:17:47.514Z,6.20
2019-02-12T18:20:16.990Z,6.20
2019-02-12T18:22:46.304Z,6.20
2019-02-12T18:25:15.826Z,6.20
2019-02-12T18:27:45.161Z,6.20
2019-02-12T18:30:15.347Z,6.30
2019-02-12T18:32:44.675Z,6.20
2019-02-12T18:35:13.987Z,6.30
2019-02-12T18:37:43.309Z,6.20
2019-02-12T18:40:12.934Z,6.30
2019-02-12T18:42:42.291Z,6.20
2019-02-12T18:45:13.187Z,6.20
2019-02-12T18:47:42.549Z,6.30
2019-02-12T18:50:12.318Z,6.30
2019-02-12T18:52:41.674Z,6.30
2019-02-12T18:55:11.914Z,6.20
2019-02-12T18:57:41.386Z,6.20
2019-02-12T19:00:13.606Z,6.20
2019-02-12T19:02:44.818Z,6.20
2019-02-12T19:05:14.168Z,6.20
2019-02-12T19:07:43.518Z,6.20
2019-02-12T19:10:13.495Z,6.10
2019-02-12T19:12:42.817Z,6.20
2019-02-12T19:15:16.958Z,6.10
2019-02-12T19:17:49.333Z,6.20
2019-02-12T19:20:18.658Z,6.20
2019-02-12T19:22:48.041Z,6.20
2019-02-12T19:25:17.342Z,6.10
2019-02-12T19:27:46.715Z,6.10
2019-02-12T19:30:16.344Z,6.10
2019-02-12T19:32:45.701Z,6.10
2019-02-12T19:35:15.009Z,6.20
2019-02-12T19:37:44.466Z,6.20
2019-02-12T19:40:13.847Z,6.10
2019-02-12T19:42:43.246Z,6.10
2019-02-12T19:45:12.682Z,5.90
2019-02-12T19:47:41.975Z,6.00
2019-02-12T19:50:11.431Z,6.00
2019-02-12T19:52:40.891Z,6.10
2019-02-12T19:55:10.226Z,5.90
2019-02-12T19:57:39.504Z,5.90
2019-02-12T20:00:11.248Z,5.90
2019-02-12T20:02:40.583Z,6.00
2019-02-12T20:05:10.310Z,6.00
2019-02-12T20:07:39.620Z,5.80
2019-02-12T20:10:09.248Z,5.70
2019-02-12T20:12:38.514Z,5.80
2019-02-12T20:15:09.024Z,5.90
2019-02-12T20:17:38.379Z,5.90
2019-02-12T20:20:09.331Z,5.90
2019-02-12T20:22:38.693Z,5.80
2019-02-12T20:25:08.397Z,5.90
2019-02-12T20:27:37.715Z,5.80
2019-02-12T20:30:08.396Z,6.00
2019-02-12T20:32:37.711Z,5.90
2019-02-12T20:35:07.568Z,6.10
2019-02-12T20:37:37.875Z,6.00
2019-02-12T20:40:08.355Z,5.90
2019-02-12T20:42:37.705Z,5.90
2019-02-12T20:45:08.408Z,5.90
2019-02-12T20:47:37.740Z,5.90
2019-02-12T20:50:08.398Z,5.90
2019-02-12T20:52:37.740Z,5.90
2019-02-12T20:55:07.899Z,5.90
2019-02-12T20:57:37.199Z,5.90
2019-02-12T21:00:08.715Z,5.90
2019-02-12T21:02:38.036Z,5.90
2019-02-12T21:05:08.531Z,5.90
2019-02-12T21:07:37.905Z,5.90
2019-02-12T21:10:09.032Z,5.80
2019-02-12T21:12:38.364Z,5.80
2019-02-12T21:15:10.066Z,5.70
2019-02-12T21:17:39.437Z,5.80
2019-02-12T21:20:10.598Z,5.80
2019-02-12T21:22:40.401Z,5.90
2019-02-12T21:25:13.267Z,5.80
2019-02-12T21:27:42.748Z,5.80
2019-02-12T21:30:14.369Z,5.70
2019-02-12T21:32:43.674Z,5.80
2019-02-12T21:35:13.473Z,5.70
2019-02-12T21:37:42.792Z,5.70
2019-02-12T21:40:14.609Z,5.70
2019-02-12T21:42:43.962Z,5.70
2019-02-12T21:45:13.291Z,5.70
2019-02-12T21:47:42.654Z,5.70
2019-02-12T21:50:12.063Z,5.60
2019-02-12T21:52:41.409Z,5.70
2019-02-12T21:55:12.397Z,5.70
2019-02-12T21:57:41.995Z,5.60
2019-02-12T22:00:13.736Z,5.60
2019-02-12T22:02:43.136Z,5.60
2019-02-12T22:05:12.972Z,5.50
2019-02-12T22:07:42.283Z,5.60
2019-02-12T22:10:16.372Z,5.60
2019-02-12T22:12:45.768Z,5.50
2019-02-12T22:15:15.147Z,5.40
2019-02-12T22:17:44.494Z,5.60
2019-02-12T22:20:15.352Z,5.60
2019-02-12T22:22:44.652Z,5.60
2019-02-12T22:25:13.957Z,5.60
2019-02-12T22:27:43.324Z,5.60
2019-02-12T22:30:15.081Z,5.60
2019-02-12T22:32:47.771Z,5.60
2019-02-12T22:35:22.005Z,5.50
2019-02-12T22:37:55.760Z,5.60
2019-02-12T22:40:30.565Z,5.70
2019-02-12T22:43:03.701Z,5.60
2019-02-12T22:45:33.070Z,5.60
2019-02-12T22:48:02.427Z,5.60
2019-02-12T22:50:31.815Z,5.60
2019-02-12T22:53:01.132Z,5.60
2019-02-12T22:55:30.419Z,5.50
2019-02-12T22:57:59.783Z,5.60
2019-02-12T23:00:52.632Z,5.50
2019-02-12T23:03:22.227Z,5.60
2019-02-12T23:05:51.547Z,5.60
2019-02-12T23:08:20.887Z,5.60
2019-02-12T23:10:50.206Z,5.60
2019-02-12T23:13:19.577Z,5.60
2019-02-12T23:15:48.902Z,5.50
2019-02-12T23:18:18.233Z,5.50
2019-02-12T23:20:48.979Z,5.50
2019-02-12T23:23:18.335Z,5.50
2019-02-12T23:25:47.630Z,5.50
2019-02-12T23:28:16.950Z,5.60
2019-02-12T23:30:46.257Z,5.50
2019-02-12T23:33:15.560Z,5.50
2019-02-12T23:35:44.865Z,5.60
2019-02-12T23:38:14.181Z,5.60
2019-02-12T23:40:43.501Z,5.60
2019-02-12T23:43:12.864Z,5.70
2019-02-12T23:45:42.165Z,5.60
2019-02-12T23:48:11.505Z,5.60
2019-02-12T23:50:40.850Z,5.50
2019-02-12T23:53:10.193Z,5.60
2019-02-12T23:55:39.506Z,5.60
2019-02-12T23:58:08.819Z,5.50
